createdAt,value
2023-03-15T00:00:26.027Z,2.03
2023-03-15T00:02:29.958Z,1.92
2023-03-15T00:04:33.283Z,2.00
2023-03-15T00:06:36.231Z,1.60
2023-03-15T00:08:38.993Z,1.88
2023-03-15T00:10:42.586Z,1.50
2023-03-15T00:12:45.326Z,1.45
2023-03-15T00:14:47.844Z,1.70
2023-03-15T00:16:50.596Z,1.70
2023-03-15T00:18:55.643Z,1.88
2023-03-15T00:20:58.261Z,1.58
2023-03-15T00:23:00.798Z,1.80
2023-03-15T00:25:03.338Z,1.70
2023-03-15T00:27:06.408Z,1.92
2023-03-15T00:29:09.019Z,1.90
2023-03-15T00:31:15.702Z,1.90
2023-03-15T00:33:18.291Z,1.88
2023-03-15T00:35:23.920Z,1.60
2023-03-15T00:37:26.610Z,1.90
2023-03-15T00:39:29.214Z,2.10
2023-03-15T00:41:32.828Z,2.00
2023-03-15T00:43:35.860Z,2.45
2023-03-15T00:45:39.742Z,2.33
2023-03-15T00:47:42.300Z,2.33
2023-03-15T00:49:45.517Z,2.55
2023-03-15T00:51:49.421Z,2.53
2023-03-15T00:53:54.187Z,2.30
2023-03-15T00:55:56.945Z,2.50
2023-03-15T00:57:59.466Z,2.50
2023-03-15T01:00:06.992Z,2.30
2023-03-15T01:02:09.739Z,2.72
2023-03-15T01:04:12.951Z,2.67
2023-03-15T01:06:18.400Z,2.60
2023-03-15T01:08:24.095Z,3.28
2023-03-15T01:10:26.667Z,2.65
2023-03-15T01:12:29.328Z,3.25
2023-03-15T01:14:32.116Z,2.70
2023-03-15T01:16:34.677Z,2.60
2023-03-15T01:18:37.748Z,2.70
2023-03-15T01:20:43.874Z,2.47
2023-03-15T01:22:46.433Z,2.40
2023-03-15T01:24:50.361Z,2.50
2023-03-15T01:26:52.921Z,2.72
2023-03-15T01:28:56.091Z,3.08
2023-03-15T01:30:59.955Z,2.50
2023-03-15T01:33:02.682Z,2.45
2023-03-15T01:35:05.888Z,2.33
2023-03-15T01:37:08.544Z,2.63
2023-03-15T01:39:11.131Z,2.72
2023-03-15T01:41:15.798Z,2.60
2023-03-15T01:43:19.717Z,2.38
2023-03-15T01:45:54.377Z,2.58
2023-03-15T01:47:56.933Z,3.05
2023-03-15T01:50:03.883Z,2.35
2023-03-15T01:52:12.886Z,2.00
2023-03-15T01:54:20.722Z,2.00
2023-03-15T01:56:25.870Z,2.38
2023-03-15T01:58:29.237Z,2.90
2023-03-15T02:00:31.844Z,2.75
2023-03-15T02:02:34.562Z,2.70
2023-03-15T02:04:41.268Z,2.88
2023-03-15T02:06:46.577Z,2.38
2023-03-15T02:08:52.858Z,2.55
2023-03-15T02:10:58.779Z,2.78
2023-03-15T02:13:04.046Z,2.50
2023-03-15T02:15:08.651Z,2.10
2023-03-15T02:17:11.508Z,1.98
2023-03-15T02:19:33.935Z,2.00
2023-03-15T02:21:45.876Z,2.10
2023-03-15T02:23:59.310Z,2.50
2023-03-15T02:26:10.240Z,3.30
2023-03-15T02:28:16.749Z,2.33
2023-03-15T02:30:19.718Z,2.13
2023-03-15T02:32:22.393Z,1.95
2023-03-15T02:34:25.400Z,1.83
2023-03-15T02:36:31.908Z,2.28
2023-03-15T02:38:34.462Z,2.53
2023-03-15T02:40:36.988Z,1.63
2023-03-15T02:42:39.577Z,2.25
2023-03-15T02:44:45.888Z,2.10
2023-03-15T02:46:52.029Z,2.17
2023-03-15T02:48:55.025Z,1.92
2023-03-15T02:50:57.617Z,2.60
2023-03-15T02:53:00.159Z,2.00
2023-03-15T02:55:03.110Z,2.55
2023-03-15T02:57:05.975Z,2.03
2023-03-15T02:59:08.706Z,2.15
2023-03-15T03:01:13.426Z,1.92
2023-03-15T03:03:16.010Z,1.95
2023-03-15T03:05:19.447Z,2.30
2023-03-15T03:07:22.005Z,1.55
2023-03-15T03:09:25.173Z,1.70
2023-03-15T03:11:27.715Z,2.33
2023-03-15T03:13:30.264Z,2.08
2023-03-15T03:15:32.830Z,2.78
2023-03-15T03:17:37.458Z,1.90
2023-03-15T03:19:40.139Z,1.80
2023-03-15T03:21:43.187Z,2.10
2023-03-15T03:23:46.407Z,2.15
2023-03-15T03:25:48.976Z,2.03
2023-03-15T03:27:51.514Z,1.75
2023-03-15T03:29:54.035Z,1.98
2023-03-15T03:31:56.593Z,2.10
2023-03-15T03:34:01.174Z,1.90
2023-03-15T03:36:04.320Z,1.85
2023-03-15T03:38:06.927Z,2.13
2023-03-15T03:40:11.492Z,2.05
2023-03-15T03:42:14.478Z,2.20
2023-03-15T03:44:17.087Z,2.13
2023-03-15T03:46:19.827Z,2.20
2023-03-15T03:48:22.440Z,2.25
2023-03-15T03:50:26.423Z,2.42
2023-03-15T03:52:29.295Z,2.03
2023-03-15T03:54:32.583Z,2.13
2023-03-15T03:56:35.802Z,2.85
2023-03-15T03:58:38.424Z,2.40
2023-03-15T04:00:41.899Z,2.20
2023-03-15T04:02:44.817Z,2.60
2023-03-15T04:04:50.227Z,2.15
2023-03-15T04:06:54.505Z,1.80
2023-03-15T04:08:57.133Z,1.98
2023-03-15T04:10:59.688Z,1.92
2023-03-15T04:13:03.160Z,1.70
2023-03-15T04:15:06.660Z,1.90
2023-03-15T04:17:09.670Z,1.60
2023-03-15T04:19:13.572Z,2.15
2023-03-15T04:21:16.144Z,2.13
2023-03-15T04:23:20.043Z,2.08
2023-03-15T04:25:26.687Z,1.98
2023-03-15T04:27:29.327Z,2.17
2023-03-15T04:29:31.894Z,2.55
2023-03-15T04:31:37.752Z,2.35
2023-03-15T04:33:40.400Z,2.33
2023-03-15T04:35:43.446Z,2.15
2023-03-15T04:37:46.276Z,2.25
2023-03-15T04:39:52.414Z,2.25
2023-03-15T04:41:55.446Z,2.47
2023-03-15T04:43:58.008Z,1.98
2023-03-15T04:46:01.372Z,2.60
2023-03-15T04:48:04.364Z,2.50
2023-03-15T04:50:08.025Z,2.55
2023-03-15T04:52:10.631Z,2.20
2023-03-15T04:54:13.148Z,2.53
2023-03-15T04:56:17.199Z,2.53
2023-03-15T04:58:20.439Z,2.47
2023-03-15T05:00:23.214Z,2.78
2023-03-15T05:02:25.766Z,2.90
2023-03-15T05:04:28.356Z,3.45
2023-03-15T05:06:30.897Z,2.67
2023-03-15T05:08:33.453Z,2.33
2023-03-15T05:10:38.150Z,3.22
2023-03-15T05:12:42.032Z,3.10
2023-03-15T05:14:45.176Z,3.20
2023-03-15T05:16:48.337Z,2.50
2023-03-15T05:18:52.083Z,3.20
2023-03-15T05:20:55.754Z,3.03
2023-03-15T05:22:58.861Z,2.80
2023-03-15T05:25:01.404Z,2.65
2023-03-15T05:27:04.641Z,2.60
2023-03-15T05:29:08.561Z,2.80
2023-03-15T05:31:11.162Z,2.83
2023-03-15T05:33:13.966Z,2.80
2023-03-15T05:35:16.552Z,2.55
2023-03-15T05:37:19.210Z,3.00
2023-03-15T05:39:22.805Z,3.42
2023-03-15T05:41:25.464Z,2.50
2023-03-15T05:43:27.981Z,3.05
2023-03-15T05:45:31.964Z,2.47
2023-03-15T05:47:34.522Z,3.03
2023-03-15T05:49:37.056Z,3.30
2023-03-15T05:51:39.596Z,3.63
2023-03-15T05:53:42.955Z,2.78
2023-03-15T05:55:46.668Z,3.50
2023-03-15T05:57:49.298Z,3.67
2023-03-15T05:59:53.621Z,3.80
2023-03-15T06:01:58.248Z,3.63
2023-03-15T06:04:00.933Z,3.53
2023-03-15T06:06:05.012Z,3.75
2023-03-15T06:08:07.584Z,3.40
2023-03-15T06:10:11.811Z,3.80
2023-03-15T06:12:14.669Z,3.40
2023-03-15T06:14:17.293Z,3.78
2023-03-15T06:16:19.917Z,3.47
2023-03-15T06:18:23.978Z,3.78
2023-03-15T06:20:26.545Z,4.00
2023-03-15T06:22:29.127Z,3.65
2023-03-15T06:24:31.725Z,4.13
2023-03-15T06:26:34.268Z,4.70
2023-03-15T06:28:36.857Z,4.60
2023-03-15T06:30:40.878Z,4.80
2023-03-15T06:32:43.626Z,5.05
2023-03-15T06:34:47.579Z,5.28
2023-03-15T06:36:52.502Z,4.53
2023-03-15T06:38:55.216Z,4.47
2023-03-15T06:40:58.901Z,3.75
2023-03-15T06:43:05.867Z,3.95
2023-03-15T06:45:09.791Z,4.60
2023-03-15T06:47:13.080Z,4.18
2023-03-15T06:49:15.698Z,4.22
2023-03-15T06:51:19.591Z,4.10
2023-03-15T06:53:22.342Z,4.00
2023-03-15T06:55:24.895Z,4.35
2023-03-15T06:57:27.458Z,3.75
2023-03-15T06:59:30.032Z,3.58
2023-03-15T07:01:32.707Z,3.28
2023-03-15T07:03:35.260Z,3.55
2023-03-15T07:05:38.088Z,3.40
2023-03-15T07:07:41.993Z,3.33
2023-03-15T07:09:44.781Z,2.85
2023-03-15T07:11:47.330Z,3.17
2023-03-15T07:13:50.364Z,3.22
2023-03-15T07:15:53.989Z,3.30
2023-03-15T07:17:56.571Z,2.38
2023-03-15T07:19:59.085Z,2.90
2023-03-15T07:22:01.666Z,3.10
2023-03-15T07:24:06.145Z,2.83
2023-03-15T07:26:08.689Z,3.25
2023-03-15T07:28:11.248Z,2.70
2023-03-15T07:30:14.807Z,2.60
2023-03-15T07:32:17.437Z,3.03
2023-03-15T07:34:20.025Z,2.97
2023-03-15T07:36:23.057Z,2.40
2023-03-15T07:38:28.804Z,2.53
2023-03-15T07:40:34.763Z,2.22
2023-03-15T07:42:37.867Z,2.30
2023-03-15T07:44:40.396Z,2.17
2023-03-15T07:46:43.016Z,2.45
2023-03-15T07:48:45.643Z,2.53
2023-03-15T07:50:48.624Z,2.50
2023-03-15T07:52:51.148Z,2.60
2023-03-15T07:54:53.968Z,2.25
2023-03-15T07:56:57.867Z,2.50
2023-03-15T07:59:00.404Z,2.55
2023-03-15T08:01:02.962Z,2.00
2023-03-15T08:03:07.196Z,1.98
2023-03-15T08:05:10.141Z,2.53
2023-03-15T08:07:12.687Z,2.00
2023-03-15T08:09:15.236Z,1.70
2023-03-15T08:11:17.787Z,2.10
2023-03-15T08:13:21.719Z,1.95
2023-03-15T08:15:24.307Z,2.28
2023-03-15T08:17:26.837Z,1.65
2023-03-15T08:19:29.410Z,1.40
2023-03-15T08:21:33.608Z,2.00
2023-03-15T08:23:36.189Z,1.50
2023-03-15T08:25:40.854Z,1.92
2023-03-15T08:27:44.095Z,2.28
2023-03-15T08:29:47.997Z,2.03
2023-03-15T08:31:50.702Z,1.70
2023-03-15T08:33:53.415Z,1.52
2023-03-15T08:35:56.391Z,1.48
2023-03-15T08:37:59.006Z,1.33
2023-03-15T08:40:05.584Z,1.60
2023-03-15T08:42:08.309Z,1.77
2023-03-15T08:44:11.295Z,1.48
2023-03-15T08:46:15.488Z,1.30
2023-03-15T08:48:18.388Z,1.70
2023-03-15T08:50:21.238Z,2.25
2023-03-15T08:52:23.978Z,1.80
2023-03-15T08:54:27.441Z,1.50
2023-03-15T08:56:30.004Z,1.45
2023-03-15T08:58:32.573Z,2.15
2023-03-15T09:00:35.167Z,1.30
2023-03-15T09:02:39.111Z,1.40
2023-03-15T09:04:41.722Z,1.67
2023-03-15T09:06:44.282Z,1.35
2023-03-15T09:08:46.828Z,1.73
2023-03-15T09:10:49.390Z,1.80
2023-03-15T09:12:54.187Z,1.55
2023-03-15T09:14:56.814Z,1.80
2023-03-15T09:16:59.508Z,1.25
2023-03-15T09:19:03.442Z,1.60
2023-03-15T09:21:06.881Z,1.90
2023-03-15T09:23:09.478Z,1.63
2023-03-15T09:25:12.102Z,1.58
2023-03-15T09:27:14.680Z,1.55
2023-03-15T09:29:17.240Z,1.50
2023-03-15T09:31:19.802Z,1.65
2023-03-15T09:33:22.777Z,1.70
2023-03-15T09:35:26.736Z,2.33
2023-03-15T09:37:29.312Z,1.80
2023-03-15T09:39:33.319Z,1.55
2023-03-15T09:41:43.898Z,1.70
2023-03-15T09:44:02.880Z,1.40
2023-03-15T09:46:19.474Z,2.92
2023-03-15T09:48:28.603Z,1.33
2023-03-15T09:50:35.899Z,1.20
2023-03-15T09:52:44.468Z,1.33
2023-03-15T09:54:53.927Z,1.13
2023-03-15T09:57:02.087Z,1.23
2023-03-15T09:59:06.795Z,1.25
2023-03-15T10:01:14.229Z,1.52
2023-03-15T10:03:22.457Z,1.60
2023-03-15T10:05:39.866Z,1.15
2023-03-15T10:07:42.490Z,1.50
2023-03-15T10:09:46.803Z,1.50
2023-03-15T10:12:00.621Z,1.40
2023-03-15T10:14:19.437Z,1.52
2023-03-15T10:16:30.096Z,1.27
2023-03-15T10:18:46.866Z,2.33
2023-03-15T10:20:58.477Z,1.48
2023-03-15T10:23:08.917Z,1.58
2023-03-15T10:25:17.629Z,1.50
2023-03-15T10:27:25.053Z,1.80
2023-03-15T10:29:28.899Z,2.10
2023-03-15T10:31:44.524Z,1.83
2023-03-15T10:33:49.886Z,1.70
2023-03-15T10:35:58.602Z,1.73
2023-03-15T10:38:16.422Z,1.50
2023-03-15T10:40:40.307Z,1.90
2023-03-15T10:42:44.431Z,1.92
2023-03-15T10:44:46.969Z,1.58
2023-03-15T10:47:21.452Z,1.50
2023-03-15T10:49:34.421Z,2.33
2023-03-15T10:51:43.304Z,1.30
2023-03-15T10:53:54.344Z,1.70
2023-03-15T10:56:03.101Z,1.40
2023-03-15T10:58:21.118Z,1.20
2023-03-15T11:00:29.498Z,1.63
2023-03-15T11:02:32.212Z,1.40
2023-03-15T11:04:35.311Z,1.15
2023-03-15T11:06:43.039Z,1.50
2023-03-15T11:08:45.666Z,1.35
2023-03-15T11:10:57.072Z,1.23
2023-03-15T11:13:21.754Z,1.30
2023-03-15T11:15:24.317Z,1.33
2023-03-15T11:17:29.195Z,1.63
2023-03-15T11:19:35.064Z,1.45
2023-03-15T11:21:38.499Z,1.88
2023-03-15T11:23:45.216Z,1.63
2023-03-15T11:25:48.371Z,1.17
2023-03-15T11:27:53.570Z,1.48
2023-03-15T11:29:59.737Z,1.20
2023-03-15T11:32:06.367Z,1.27
2023-03-15T11:34:13.955Z,1.40
2023-03-15T11:36:20.005Z,1.40
2023-03-15T11:38:33.262Z,1.13
2023-03-15T11:40:41.656Z,1.08
2023-03-15T11:42:50.478Z,1.30
2023-03-15T11:44:56.355Z,1.15
2023-03-15T11:47:04.054Z,1.30
2023-03-15T11:49:16.665Z,0.90
2023-03-15T11:51:19.370Z,1.05
2023-03-15T11:53:24.448Z,1.55
2023-03-15T11:55:29.274Z,1.00
2023-03-15T11:57:45.591Z,1.20
2023-03-15T11:59:49.165Z,1.00
2023-03-15T12:01:55.905Z,1.15
2023-03-15T12:04:31.812Z,1.20
2023-03-15T12:06:38.828Z,1.05
2023-03-15T12:08:44.759Z,0.80
2023-03-15T12:10:49.584Z,1.20
2023-03-15T12:12:59.406Z,1.52
2023-03-15T12:15:16.194Z,1.25
2023-03-15T12:17:39.614Z,0.95
2023-03-15T12:19:42.368Z,1.15
2023-03-15T12:21:47.803Z,1.20
2023-03-15T12:23:59.352Z,1.15
2023-03-15T12:26:08.034Z,1.15
2023-03-15T12:28:22.284Z,1.10
2023-03-15T12:30:31.715Z,1.42
2023-03-15T12:32:48.178Z,1.00
2023-03-15T12:34:52.508Z,1.13
2023-03-15T12:36:58.895Z,1.05
2023-03-15T12:39:04.438Z,1.10
2023-03-15T12:41:10.721Z,1.10
2023-03-15T12:43:14.680Z,0.88
2023-03-15T12:45:37.495Z,1.52
2023-03-15T12:47:45.380Z,1.35
2023-03-15T12:49:48.112Z,0.85
2023-03-15T12:51:59.249Z,0.88
2023-03-15T12:54:03.938Z,0.98
2023-03-15T12:56:34.916Z,1.58
2023-03-15T12:58:41.946Z,1.40
2023-03-15T13:00:45.891Z,1.00
2023-03-15T13:02:51.935Z,1.10
2023-03-15T13:05:16.633Z,1.83
2023-03-15T13:07:26.946Z,1.25
2023-03-15T13:09:49.299Z,1.77
2023-03-15T13:11:58.192Z,1.13
2023-03-15T13:14:11.953Z,1.10
2023-03-15T13:16:29.389Z,1.15
2023-03-15T13:18:37.458Z,1.73
2023-03-15T13:20:43.128Z,1.00
2023-03-15T13:22:55.895Z,1.00
2023-03-15T13:25:06.454Z,1.20
2023-03-15T13:27:14.214Z,0.70
2023-03-15T13:29:22.953Z,1.15
2023-03-15T13:31:31.086Z,1.30
2023-03-15T13:33:33.973Z,1.20
2023-03-15T13:35:43.835Z,1.30
2023-03-15T13:37:46.479Z,1.42
2023-03-15T13:39:57.476Z,1.50
2023-03-15T13:42:01.834Z,1.17
2023-03-15T13:44:14.796Z,1.38
2023-03-15T13:46:20.077Z,0.90
2023-03-15T13:48:22.685Z,1.27
2023-03-15T13:50:25.251Z,0.90
2023-03-15T13:52:27.857Z,1.30
2023-03-15T13:54:32.614Z,1.10
2023-03-15T13:56:48.928Z,1.75
2023-03-15T13:58:52.952Z,1.38
2023-03-15T14:01:01.094Z,1.13
2023-03-15T14:03:08.295Z,0.90
2023-03-15T14:05:13.827Z,1.02
2023-03-15T14:07:28.655Z,1.60
2023-03-15T14:09:31.305Z,1.02
2023-03-15T14:11:38.381Z,1.40
2023-03-15T14:13:52.060Z,1.00
2023-03-15T14:15:58.208Z,1.30
2023-03-15T14:18:04.433Z,0.95
2023-03-15T14:20:16.444Z,1.00
2023-03-15T14:22:20.197Z,1.13
2023-03-15T14:24:28.380Z,1.25
2023-03-15T14:26:31.288Z,1.00
2023-03-15T14:28:34.559Z,0.98
2023-03-15T14:30:38.511Z,1.17
2023-03-15T14:32:53.512Z,1.10
2023-03-15T14:35:02.625Z,1.15
2023-03-15T14:37:10.079Z,1.27
2023-03-15T14:39:20.395Z,1.10
2023-03-15T14:41:32.988Z,1.05
2023-03-15T14:43:35.567Z,1.10
2023-03-15T14:45:40.374Z,1.35
2023-03-15T14:47:56.055Z,1.92
2023-03-15T14:49:59.644Z,1.30
2023-03-15T14:52:04.932Z,1.60
2023-03-15T14:54:13.175Z,1.20
2023-03-15T14:56:18.641Z,1.65
2023-03-15T14:58:23.079Z,1.20
2023-03-15T15:00:26.038Z,1.27
2023-03-15T15:02:29.035Z,1.40
2023-03-15T15:04:34.606Z,1.42
2023-03-15T15:06:37.865Z,1.75
2023-03-15T15:08:43.732Z,1.20
2023-03-15T15:10:50.442Z,1.23
2023-03-15T15:13:04.945Z,1.23
2023-03-15T15:15:16.514Z,1.80
2023-03-15T15:17:19.219Z,1.70
2023-03-15T15:19:21.803Z,1.40
2023-03-15T15:21:28.139Z,1.45
2023-03-15T15:23:32.801Z,1.38
2023-03-15T15:25:35.892Z,1.48
2023-03-15T15:27:39.800Z,1.27
2023-03-15T15:29:42.955Z,1.10
2023-03-15T15:31:46.631Z,1.33
2023-03-15T15:33:49.623Z,1.35
2023-03-15T15:35:54.752Z,1.25
2023-03-15T15:37:57.489Z,1.83
2023-03-15T15:40:00.081Z,1.20
2023-03-15T15:42:02.638Z,1.67
2023-03-15T15:44:15.484Z,1.80
2023-03-15T15:46:18.111Z,1.30
2023-03-15T15:48:20.669Z,1.42
2023-03-15T15:50:23.341Z,1.45
2023-03-15T15:52:25.892Z,1.70
2023-03-15T15:54:30.579Z,1.55
2023-03-15T15:56:35.894Z,1.80
2023-03-15T15:58:38.479Z,1.40
2023-03-15T16:00:42.354Z,1.52
2023-03-15T16:02:45.174Z,1.60
2023-03-15T16:04:47.739Z,1.65
2023-03-15T16:06:54.680Z,1.60
2023-03-15T16:08:57.774Z,1.80
2023-03-15T16:11:00.560Z,1.60
2023-03-15T16:13:05.346Z,2.05
2023-03-15T16:15:11.736Z,2.20
2023-03-15T16:17:18.906Z,2.20
2023-03-15T16:19:21.461Z,1.65
2023-03-15T16:21:33.391Z,2.25
2023-03-15T16:23:35.995Z,1.70
2023-03-15T16:25:38.540Z,1.80
2023-03-15T16:27:42.040Z,1.83
2023-03-15T16:29:47.412Z,2.05
2023-03-15T16:31:50.947Z,2.10
2023-03-15T16:33:54.840Z,2.08
2023-03-15T16:35:57.426Z,2.17
2023-03-15T16:38:01.673Z,1.80
2023-03-15T16:40:09.861Z,1.95
2023-03-15T16:42:13.846Z,1.88
2023-03-15T16:44:18.418Z,1.95
2023-03-15T16:46:21.010Z,1.77
2023-03-15T16:48:23.576Z,1.83
2023-03-15T16:50:27.844Z,1.98
2023-03-15T16:52:31.118Z,2.20
2023-03-15T16:54:41.188Z,2.08
2023-03-15T16:56:45.204Z,2.70
2023-03-15T16:58:52.747Z,2.95
2023-03-15T17:00:55.933Z,2.50
2023-03-15T17:02:59.939Z,2.40
2023-03-15T17:05:02.569Z,2.42
2023-03-15T17:07:08.582Z,2.05
2023-03-15T17:09:14.837Z,2.40
2023-03-15T17:11:18.965Z,2.40
2023-03-15T17:13:26.429Z,1.83
2023-03-15T17:15:30.978Z,2.22
2023-03-15T17:17:35.866Z,2.30
2023-03-15T17:19:38.873Z,2.00
2023-03-15T17:21:43.172Z,2.20
2023-03-15T17:23:47.703Z,2.15
2023-03-15T17:25:50.564Z,2.30
2023-03-15T17:27:53.205Z,2.20
2023-03-15T17:29:55.791Z,1.90
2023-03-15T17:31:58.422Z,2.25
2023-03-15T17:34:01.022Z,2.92
2023-03-15T17:36:06.973Z,2.38
2023-03-15T17:38:18.334Z,2.50
2023-03-15T17:40:25.090Z,2.58
2023-03-15T17:42:27.948Z,2.83
2023-03-15T17:44:31.327Z,2.55
2023-03-15T17:46:33.987Z,2.97
2023-03-15T17:48:37.268Z,2.55
2023-03-15T17:50:42.898Z,2.63
2023-03-15T17:52:47.108Z,2.80
2023-03-15T17:54:49.742Z,2.20
2023-03-15T17:56:53.679Z,2.75
2023-03-15T17:58:56.439Z,2.60
2023-03-15T18:00:59.898Z,2.50
2023-03-15T18:03:02.615Z,2.92
2023-03-15T18:05:13.298Z,2.65
2023-03-15T18:07:15.867Z,2.55
2023-03-15T18:09:18.425Z,2.80
2023-03-15T18:11:24.546Z,3.35
2023-03-15T18:13:28.897Z,3.67
2023-03-15T18:15:31.595Z,3.28
2023-03-15T18:17:34.242Z,3.05
2023-03-15T18:19:36.804Z,3.05
2023-03-15T18:21:39.366Z,3.63
2023-03-15T18:23:42.189Z,3.30
2023-03-15T18:25:44.911Z,3.63
2023-03-15T18:27:48.218Z,3.67
2023-03-15T18:29:52.632Z,3.63
2023-03-15T18:31:55.262Z,2.90
2023-03-15T18:33:57.924Z,3.13
2023-03-15T18:36:00.583Z,3.40
2023-03-15T18:38:03.989Z,3.38
2023-03-15T18:40:08.484Z,4.30
2023-03-15T18:42:11.557Z,4.90
2023-03-15T18:44:14.079Z,4.43
2023-03-15T18:46:19.685Z,4.65
2023-03-15T18:48:34.258Z,4.30
2023-03-15T18:50:43.336Z,4.32
2023-03-15T18:52:46.499Z,4.70
2023-03-15T18:54:49.268Z,4.50
2023-03-15T18:56:52.222Z,4.30
2023-03-15T18:58:55.641Z,4.25
2023-03-15T19:00:58.426Z,4.15
2023-03-15T19:03:04.199Z,4.80
2023-03-15T19:05:07.628Z,4.82
2023-03-15T19:07:10.174Z,4.40
2023-03-15T19:09:12.890Z,4.10
2023-03-15T19:11:15.438Z,4.10
2023-03-15T19:13:17.962Z,5.00
2023-03-15T19:15:22.154Z,4.15
2023-03-15T19:17:24.820Z,5.07
2023-03-15T19:19:29.245Z,4.63
2023-03-15T19:21:31.852Z,4.05
2023-03-15T19:23:34.664Z,4.97
2023-03-15T19:25:37.254Z,4.43
2023-03-15T19:27:40.056Z,5.00
2023-03-15T19:29:42.764Z,4.72
2023-03-15T19:31:45.279Z,4.95
2023-03-15T19:33:47.828Z,5.25
2023-03-15T19:35:52.113Z,5.18
2023-03-15T19:37:56.194Z,6.20
2023-03-15T19:39:58.793Z,5.43
2023-03-15T19:42:01.332Z,5.30
2023-03-15T19:44:03.895Z,5.13
2023-03-15T19:46:07.935Z,5.68
2023-03-15T19:48:16.075Z,5.43
2023-03-15T19:50:19.155Z,5.20
2023-03-15T19:52:23.207Z,5.82
2023-03-15T19:54:25.791Z,5.43
2023-03-15T19:56:28.343Z,5.82
2023-03-15T19:58:30.945Z,6.07
2023-03-15T20:00:33.647Z,5.60
2023-03-15T20:02:36.163Z,5.28
2023-03-15T20:04:39.298Z,4.90
2023-03-15T20:06:41.816Z,5.60
2023-03-15T20:08:45.725Z,5.10
2023-03-15T20:10:48.563Z,6.20
2023-03-15T20:12:51.133Z,5.70
2023-03-15T20:14:53.671Z,5.38
2023-03-15T20:16:56.215Z,5.60
2023-03-15T20:18:58.801Z,6.82
2023-03-15T20:21:01.348Z,6.82
2023-03-15T20:23:04.743Z,6.90
2023-03-15T20:25:09.712Z,6.20
2023-03-15T20:27:12.291Z,6.40
2023-03-15T20:29:14.894Z,6.80
2023-03-15T20:31:19.976Z,6.47
2023-03-15T20:33:22.567Z,7.28
2023-03-15T20:35:25.131Z,6.60
2023-03-15T20:37:29.776Z,6.85
2023-03-15T20:39:32.557Z,6.32
2023-03-15T20:41:38.420Z,6.63
2023-03-15T20:43:41.914Z,5.43
2023-03-15T20:45:44.738Z,6.10
2023-03-15T20:47:47.365Z,7.50
2023-03-15T20:49:49.979Z,6.90
2023-03-15T20:51:52.562Z,6.63
2023-03-15T20:53:55.107Z,7.03
2023-03-15T20:55:57.704Z,6.53
2023-03-15T20:58:01.788Z,7.30
2023-03-15T21:00:12.135Z,8.05
2023-03-15T21:02:14.692Z,7.97
2023-03-15T21:04:17.526Z,8.13
2023-03-15T21:06:20.083Z,7.40
2023-03-15T21:08:22.610Z,8.07
2023-03-15T21:10:25.528Z,7.90
2023-03-15T21:12:28.179Z,7.90
2023-03-15T21:14:32.591Z,7.53
2023-03-15T21:16:35.263Z,8.30
2023-03-15T21:18:38.395Z,7.65
2023-03-15T21:20:41.156Z,7.20
2023-03-15T21:22:43.725Z,7.68
2023-03-15T21:24:55.505Z,6.75
2023-03-15T21:26:58.737Z,7.25
2023-03-15T21:29:01.279Z,7.50
2023-03-15T21:31:05.690Z,7.55
2023-03-15T21:33:08.334Z,7.57
2023-03-15T21:35:11.223Z,7.47
2023-03-15T21:37:13.742Z,7.15
2023-03-15T21:39:16.300Z,7.30
2023-03-15T21:41:18.873Z,7.35
2023-03-15T21:43:21.402Z,7.55
2023-03-15T21:45:24.153Z,7.75
2023-03-15T21:47:28.215Z,7.43
2023-03-15T21:49:32.551Z,8.13
2023-03-15T21:51:35.193Z,8.07
2023-03-15T21:53:38.396Z,7.75
2023-03-15T21:55:40.926Z,7.60
2023-03-15T21:57:44.635Z,7.38
2023-03-15T21:59:47.171Z,7.18
2023-03-15T22:01:49.781Z,8.18
2023-03-15T22:03:54.676Z,8.32
2023-03-15T22:05:57.509Z,10.20
2023-03-15T22:08:00.042Z,8.75
2023-03-15T22:10:02.825Z,8.90
2023-03-15T22:12:05.881Z,7.65
2023-03-15T22:14:08.434Z,8.73
2023-03-15T22:16:12.555Z,8.35
2023-03-15T22:18:15.123Z,8.90
2023-03-15T22:20:19.124Z,8.40
2023-03-15T22:22:21.691Z,8.68
2023-03-15T22:24:24.332Z,8.80
2023-03-15T22:26:27.048Z,8.93
2023-03-15T22:28:29.608Z,8.70
2023-03-15T22:30:32.328Z,8.60
2023-03-15T22:32:35.032Z,7.85
2023-03-15T22:34:37.578Z,7.53
2023-03-15T22:36:42.653Z,7.80
2023-03-15T22:38:50.253Z,7.85
2023-03-15T22:41:01.005Z,6.88
2023-03-15T22:43:03.656Z,7.88
2023-03-15T22:45:07.091Z,7.32
2023-03-15T22:47:10.115Z,7.45
2023-03-15T22:49:12.710Z,7.65
2023-03-15T22:51:16.817Z,8.40
2023-03-15T22:53:20.673Z,8.32
2023-03-15T22:55:23.474Z,8.40
2023-03-15T22:57:26.023Z,7.78
2023-03-15T22:59:29.066Z,8.57
2023-03-15T23:01:31.812Z,8.35
2023-03-15T23:03:34.464Z,8.23
2023-03-15T23:05:37.019Z,9.27
2023-03-15T23:07:40.050Z,7.20
2023-03-15T23:09:44.067Z,7.82
2023-03-15T23:11:46.641Z,6.72
2023-03-15T23:13:49.243Z,7.63
2023-03-15T23:15:52.002Z,7.28
2023-03-15T23:17:55.879Z,8.50
2023-03-15T23:19:58.470Z,8.32
2023-03-15T23:22:02.023Z,7.60
2023-03-15T23:24:04.911Z,8.25
2023-03-15T23:26:08.930Z,7.90
2023-03-15T23:28:11.495Z,8.27
2023-03-15T23:30:15.649Z,8.02
2023-03-15T23:32:18.327Z,7.80
2023-03-15T23:34:23.403Z,7.45
2023-03-15T23:36:26.082Z,8.10
2023-03-15T23:38:29.000Z,7.90
2023-03-15T23:40:31.543Z,7.97
2023-03-15T23:42:37.517Z,7.45
2023-03-15T23:44:40.233Z,8.55
2023-03-15T23:46:42.941Z,7.93
2023-03-15T23:48:45.558Z,7.82
2023-03-15T23:50:53.226Z,7.63
2023-03-15T23:52:57.244Z,7.57
2023-03-15T23:54:59.828Z,8.23
2023-03-15T23:57:02.381Z,7.32
2023-03-15T23:59:06.265Z,7.57
